Time;durP1;ratioP1;P1;durP2;ratioP2;P2;SDS_P1;SDS_P2;PMS_P1;PMS_P2;Temp;Humidity;BMP_temperature;BMP_pressure;BME280_temperature;BME280_humidity;BME280_pressure;Samples;Min_cycle;Max_cycle;Signal;HPM_P1;HPM_P2
2022/07/24 00:01:38;;;;;;;;;;;;;;;27.70;41.13;99810.94;5083065;28;19916;-67
2022/07/24 00:04:04;;;;;;;;;;;;;;;27.71;41.43;99813.38;5103362;28;19917;-67
2022/07/24 00:06:29;;;;;;;;;;;;;;;27.66;41.30;99814.19;5104251;28;19912;-67
2022/07/24 00:08:55;;;;;;;;;;;;;;;27.67;41.30;99813.13;5105028;28;19922;-67
2022/07/24 00:11:20;;;;;;;;;;;;;;;27.72;41.15;99806.03;5104061;28;19908;-67
2022/07/24 00:13:45;;;;;;;;;;;;;;;27.67;40.97;99813.13;5104121;28;19924;-67
2022/07/24 00:16:11;;;;;;;;;;;;;;;27.70;41.01;99803.59;5102882;28;19930;-67
2022/07/24 00:18:36;;;;;;;;;;;;;;;27.73;41.15;99803.03;5102612;28;19923;-67
2022/07/24 00:21:01;;;;;;;;;;;;;;;27.61;41.62;99811.47;5103443;28;20210;-67
2022/07/24 00:23:27;;;;;;;;;;;;;;;27.62;41.55;99820.47;5102327;28;19916;-67
2022/07/24 00:25:52;;;;;;;;;;;;;;;27.55;41.87;99826.13;5102596;28;19916;-67
2022/07/24 00:28:18;;;;;;;;;;;;;;;27.51;41.90;99822.31;5104441;28;20105;-67
2022/07/24 00:30:43;;;;;;;;;;;;;;;27.45;41.70;99819.88;5101699;28;19942;-67
2022/07/24 00:33:08;;;;;;;;;;;;;;;27.42;42.11;99817.69;5102411;28;19935;-67
2022/07/24 00:35:34;;;;;;;;;;;;;;;27.41;42.38;99816.06;5102352;28;19974;-67
2022/07/24 00:37:59;;;;;;;;;;;;;;;27.21;42.46;99820.41;5102944;28;19991;-67
2022/07/24 00:40:25;;;;;;;;;;;;;;;27.18;42.44;99822.84;5102964;28;20186;-67
2022/07/24 00:42:51;;;;;;;;;;;;;;;26.99;42.59;99826.03;5101473;28;19920;-67
2022/07/24 00:45:16;;;;;;;;;;;;;;;27.05;42.43;99826.88;5106597;28;19912;-67
2022/07/24 00:47:42;;;;;;;;;;;;;;;27.09;42.58;99825.28;5103222;28;19965;-67
2022/07/24 00:50:07;;;;;;;;;;;;;;;27.03;42.61;99826.31;5102817;28;19986;-67
2022/07/24 00:52:33;;;;;;;;;;;;;;;27.13;42.36;99820.13;5103185;28;19942;-67
2022/07/24 00:54:58;;;;;;;;;;;;;;;27.18;41.95;99817.41;5104471;28;19982;-67
2022/07/24 00:57:24;;;;;;;;;;;;;;;27.23;41.98;99828.28;5103118;28;19964;-67
2022/07/24 00:59:49;;;;;;;;;;;;;;;27.16;42.06;99822.28;5100906;28;19912;-67
2022/07/24 01:02:14;;;;;;;;;;;;;;;27.00;42.18;99824.13;5104092;28;19920;-67
2022/07/24 01:04:39;;;;;;;;;;;;;;;26.98;42.22;99821.69;5102237;28;20240;-67
2022/07/24 01:07:05;;;;;;;;;;;;;;;26.99;42.39;99817.88;5085581;28;19942;-67
2022/07/24 01:09:31;;;;;;;;;;;;;;;26.98;42.33;99824.41;5102647;28;19923;-67
2022/07/24 01:11:56;;;;;;;;;;;;;;;27.02;41.69;99824.69;5099493;28;19957;-67
2022/07/24 01:14:22;;;;;;;;;;;;;;;26.92;42.54;99811.03;5102042;28;19916;-67
2022/07/24 01:16:48;;;;;;;;;;;;;;;26.92;42.24;99808.31;5102264;28;20029;-67
2022/07/24 01:19:13;;;;;;;;;;;;;;;26.90;42.55;99805.06;5102106;28;19919;-67
2022/07/24 01:21:39;;;;;;;;;;;;;;;26.89;42.25;99806.13;5102212;28;19912;-67
2022/07/24 01:24:05;;;;;;;;;;;;;;;26.88;42.48;99808.03;5102364;28;20306;-67
2022/07/24 01:26:30;;;;;;;;;;;;;;;26.82;42.87;99803.66;5102114;28;19943;-67
2022/07/24 01:28:55;;;;;;;;;;;;;;;26.90;42.66;99805.88;5108673;28;19916;-67
2022/07/24 01:31:20;;;;;;;;;;;;;;;26.89;42.49;99814.28;5122842;28;20165;-67
2022/07/24 01:33:46;;;;;;;;;;;;;;;26.92;42.63;99809.13;5095505;28;20287;-67
2022/07/24 01:36:11;;;;;;;;;;;;;;;26.87;42.70;99808.31;5102507;28;19916;-67
2022/07/24 01:38:36;;;;;;;;;;;;;;;26.86;42.76;99801.22;5101208;28;19922;-67
2022/07/24 01:41:02;;;;;;;;;;;;;;;26.79;43.11;99808.81;5099412;28;19915;-67
2022/07/24 01:43:27;;;;;;;;;;;;;;;26.75;43.16;99805.81;5103166;28;19930;-67
2022/07/24 01:45:52;;;;;;;;;;;;;;;26.80;42.75;99807.75;5101048;28;19929;-67
2022/07/24 01:48:18;;;;;;;;;;;;;;;26.74;43.26;99798.75;5101105;28;20189;-67
2022/07/24 01:50:43;;;;;;;;;;;;;;;26.61;43.75;99801.97;5102530;28;20426;-67
2022/07/24 01:53:08;;;;;;;;;;;;;;;26.63;43.85;99806.06;5100982;28;19986;-67
2022/07/24 01:55:34;;;;;;;;;;;;;;;26.59;43.96;99801.41;5101868;28;19919;-67
2022/07/24 01:57:59;;;;;;;;;;;;;;;26.48;44.34;99795.13;5102586;28;19916;-67
2022/07/24 02:00:24;;;;;;;;;;;;;;;26.42;44.57;99793.47;5101130;28;20142;-67
2022/07/24 02:02:50;;;;;;;;;;;;;;;26.46;44.93;99802.72;5101348;28;19990;-67
2022/07/24 02:05:15;;;;;;;;;;;;;;;26.39;45.02;99800.25;5101683;28;19988;-67
2022/07/24 02:07:42;;;;;;;;;;;;;;;26.29;44.83;99796.63;5102352;28;20269;-67
2022/07/24 02:10:07;;;;;;;;;;;;;;;26.24;45.09;99796.63;5101502;28;19927;-67
2022/07/24 02:12:32;;;;;;;;;;;;;;;26.16;45.62;99803.34;5099616;28;19919;-67
2022/07/24 02:14:58;;;;;;;;;;;;;;;26.07;45.56;99800.31;5099841;28;19912;-67
2022/07/24 02:17:23;;;;;;;;;;;;;;;25.96;45.46;99795.88;5101063;28;20095;-67
2022/07/24 02:19:48;;;;;;;;;;;;;;;25.93;45.50;99801.00;5100441;28;19920;-67
2022/07/24 02:22:14;;;;;;;;;;;;;;;25.95;45.62;99796.13;5100020;28;19938;-67
2022/07/24 02:24:39;;;;;;;;;;;;;;;25.93;45.71;99795.59;5101003;28;19915;-67
2022/07/24 02:27:04;;;;;;;;;;;;;;;26.03;45.33;99796.50;5101025;28;19939;-67
2022/07/24 02:29:29;;;;;;;;;;;;;;;26.07;45.63;99797.59;5100618;28;19916;-67
2022/07/24 02:31:55;;;;;;;;;;;;;;;26.08;46.14;99798.41;5101185;28;19919;-67
2022/07/24 02:34:20;;;;;;;;;;;;;;;25.92;46.50;99796.66;5101185;28;19990;-67
2022/07/24 02:36:45;;;;;;;;;;;;;;;25.84;46.95;99797.97;5100271;28;19916;-67
2022/07/24 02:39:10;;;;;;;;;;;;;;;25.66;46.90;99801.91;5100729;28;19923;-67
2022/07/24 02:41:36;;;;;;;;;;;;;;;25.55;47.10;99805.59;5100163;28;20138;-67
2022/07/24 02:44:01;;;;;;;;;;;;;;;25.48;47.21;99796.84;5083094;28;19977;-67
2022/07/24 02:46:26;;;;;;;;;;;;;;;25.53;46.77;99798.78;5100691;28;20082;-67
2022/07/24 02:48:52;;;;;;;;;;;;;;;25.54;46.59;99800.41;5101393;28;20452;-67
2022/07/24 02:51:17;;;;;;;;;;;;;;;25.55;46.75;99794.75;5100383;28;19982;-67
2022/07/24 02:53:42;;;;;;;;;;;;;;;25.45;47.06;99789.22;5101376;28;20210;-67
2022/07/24 02:56:08;;;;;;;;;;;;;;;25.30;47.52;99791.81;5105483;28;19919;-67
2022/07/24 02:58:33;;;;;;;;;;;;;;;25.23;47.59;99786.59;5104013;28;19915;-67
2022/07/24 03:00:59;;;;;;;;;;;;;;;25.22;47.61;99795.00;5103810;28;20405;-67
2022/07/24 03:03:24;;;;;;;;;;;;;;;25.24;47.69;99795.53;5104043;28;19916;-67
2022/07/24 03:05:49;;;;;;;;;;;;;;;25.12;47.64;99791.09;5103097;28;19920;-67
2022/07/24 03:08:15;;;;;;;;;;;;;;;25.13;47.81;99787.31;5105060;28;19919;-67
2022/07/24 03:10:40;;;;;;;;;;;;;;;25.21;47.86;99802.31;5104784;28;19983;-67
2022/07/24 03:13:05;;;;;;;;;;;;;;;25.26;47.93;99798.81;5104338;28;19962;-67
2022/07/24 03:15:31;;;;;;;;;;;;;;;25.25;48.10;99802.59;5103767;28;19919;-67
2022/07/24 03:17:57;;;;;;;;;;;;;;;25.10;48.18;99798.66;5104800;28;19915;-67
2022/07/24 03:20:23;;;;;;;;;;;;;;;25.03;48.54;99795.34;5106743;28;20239;-67
2022/07/24 03:22:48;;;;;;;;;;;;;;;25.08;48.42;99791.88;5104031;28;19923;-67
2022/07/24 03:25:14;;;;;;;;;;;;;;;25.26;47.96;99802.34;5106260;28;19912;-67
2022/07/24 03:27:40;;;;;;;;;;;;;;;25.10;48.23;99795.97;5104663;28;19968;-67
2022/07/24 03:30:06;;;;;;;;;;;;;;;24.99;48.77;99801.53;5104338;28;19916;-67
2022/07/24 03:32:31;;;;;;;;;;;;;;;25.01;48.65;99807.50;5103727;28;20139;-67
2022/07/24 03:34:56;;;;;;;;;;;;;;;25.07;48.82;99801.06;5104192;28;19912;-67
2022/07/24 03:37:22;;;;;;;;;;;;;;;25.13;48.89;99805.47;5102749;28;20101;-67
2022/07/24 03:39:47;;;;;;;;;;;;;;;25.13;48.90;99798.16;5102681;28;19919;-67
2022/07/24 03:42:12;;;;;;;;;;;;;;;25.05;49.17;99795.91;5105576;28;19912;-67
2022/07/24 03:44:37;;;;;;;;;;;;;;;24.94;49.13;99802.22;5102180;28;19927;-67
2022/07/24 03:47:03;;;;;;;;;;;;;;;25.23;49.18;99802.84;5103589;28;19974;-67
2022/07/24 03:49:28;;;;;;;;;;;;;;;25.11;49.08;99804.91;5105243;28;19961;-67
2022/07/24 03:51:53;;;;;;;;;;;;;;;25.16;49.60;99806.84;5105574;28;19982;-67
2022/07/24 03:54:19;;;;;;;;;;;;;;;25.26;49.05;99805.06;5108110;28;19912;-67
2022/07/24 03:56:44;;;;;;;;;;;;;;;25.34;48.85;99804.59;5106358;28;19961;-67
2022/07/24 03:59:09;;;;;;;;;;;;;;;25.33;49.17;99805.66;5105283;28;19965;-67
2022/07/24 04:01:34;;;;;;;;;;;;;;;25.30;49.38;99808.06;5105233;28;19908;-67
2022/07/24 04:04:04;;;;;;;;;;;;;;;25.42;51.70;99811.44;5105395;28;19911;-67
2022/07/24 04:06:30;;;;;;;;;;;;;;;25.23;51.52;99812.88;5091224;28;20105;-67
2022/07/24 04:08:55;;;;;;;;;;;;;;;25.27;49.46;99803.16;5105227;28;19923;-67
2022/07/24 04:11:20;;;;;;;;;;;;;;;25.35;49.01;99814.34;5105066;28;19915;-67
2022/07/24 04:13:45;;;;;;;;;;;;;;;25.48;48.89;99813.13;5104921;28;19912;-67
2022/07/24 04:16:11;;;;;;;;;;;;;;;25.65;48.62;99812.97;5105013;28;20245;-67
2022/07/24 04:18:36;;;;;;;;;;;;;;;25.65;48.85;99815.69;5104929;28;19912;-67
2022/07/24 04:21:01;;;;;;;;;;;;;;;25.64;48.66;99811.34;5104635;28;19908;-67
2022/07/24 04:23:27;;;;;;;;;;;;;;;25.76;48.05;99804.69;5110950;28;19912;-67
2022/07/24 04:25:52;;;;;;;;;;;;;;;25.86;47.93;99809.38;5104799;28;19945;-67
2022/07/24 04:28:17;;;;;;;;;;;;;;;25.95;47.63;99812.41;5104934;28;19912;-67
2022/07/24 04:30:43;;;;;;;;;;;;;;;26.15;47.16;99817.19;5104471;28;19911;-67
2022/07/24 04:33:08;;;;;;;;;;;;;;;26.31;47.10;99808.06;5104748;28;19985;-67
2022/07/24 04:35:33;;;;;;;;;;;;;;;26.28;47.49;99809.38;5104203;28;19915;-67
2022/07/24 04:37:58;;;;;;;;;;;;;;;26.39;47.44;99813.00;5104737;28;20346;-67
2022/07/24 04:40:24;;;;;;;;;;;;;;;26.65;46.29;99819.38;5104034;28;19919;-67
2022/07/24 04:42:49;;;;;;;;;;;;;;;26.58;46.22;99814.19;5104208;28;20196;-67
2022/07/24 04:45:14;;;;;;;;;;;;;;;26.75;45.77;99819.41;5103476;28;19915;-67
2022/07/24 04:47:40;;;;;;;;;;;;;;;26.83;44.99;99818.06;5101019;28;20206;-67
2022/07/24 04:50:06;;;;;;;;;;;;;;;27.02;44.79;99806.47;5087010;28;19927;-67
2022/07/24 04:52:31;;;;;;;;;;;;;;;27.29;44.77;99806.28;5102373;28;19991;-67
2022/07/24 04:54:56;;;;;;;;;;;;;;;27.59;44.90;99813.63;5102377;28;19949;-67
2022/07/24 04:57:22;;;;;;;;;;;;;;;27.77;43.52;99816.91;5105644;28;20252;-67
2022/07/24 04:59:47;;;;;;;;;;;;;;;27.99;44.46;99812.81;5102723;28;19919;-67
2022/07/24 05:02:12;;;;;;;;;;;;;;;28.17;43.75;99811.44;5103729;28;19919;-67
2022/07/24 05:04:37;;;;;;;;;;;;;;;28.34;43.03;99818.50;5102867;28;19920;-67
2022/07/24 05:07:03;;;;;;;;;;;;;;;28.42;42.37;99816.03;5102036;28;19966;-67
2022/07/24 05:09:28;;;;;;;;;;;;;;;28.51;41.56;99811.63;5101776;28;20216;-67
2022/07/24 05:11:54;;;;;;;;;;;;;;;28.72;40.73;99806.91;5102085;28;19989;-67
2022/07/24 05:14:19;;;;;;;;;;;;;;;28.74;39.72;99809.34;5102725;28;20201;-67
2022/07/24 05:16:44;;;;;;;;;;;;;;;29.01;40.30;99809.78;5101400;28;19912;-67
2022/07/24 05:19:10;;;;;;;;;;;;;;;28.97;40.10;99808.72;5101042;28;20216;-67
2022/07/24 05:21:35;;;;;;;;;;;;;;;29.27;39.78;99799.53;5101046;28;20012;-68
2022/07/24 05:24:01;;;;;;;;;;;;;;;29.48;39.22;99808.41;5102570;28;19988;-67
2022/07/24 05:26:28;;;;;;;;;;;;;;;29.72;38.63;99805.75;5101938;28;19908;-67
2022/07/24 05:28:53;;;;;;;;;;;;;;;29.84;38.13;99798.00;5101502;28;19962;-67
2022/07/24 05:31:18;;;;;;;;;;;;;;;30.02;37.95;99802.75;5101916;28;19923;-67
2022/07/24 05:33:43;;;;;;;;;;;;;;;30.12;38.19;99796.38;5101913;28;19916;-67
2022/07/24 05:36:09;;;;;;;;;;;;;;;30.17;37.18;99799.06;5099841;28;19955;-68
2022/07/24 05:38:34;;;;;;;;;;;;;;;30.31;37.58;99805.47;5102682;28;19924;-67
2022/07/24 05:40:59;;;;;;;;;;;;;;;30.33;36.91;99799.72;5099716;28;19913;-67
2022/07/24 05:43:25;;;;;;;;;;;;;;;30.30;36.64;99803.84;5100841;28;19924;-67
2022/07/24 05:45:50;;;;;;;;;;;;;;;30.70;36.15;99808.03;5102374;28;19918;-67
2022/07/24 05:48:15;;;;;;;;;;;;;;;30.87;35.38;99799.34;5101692;28;19975;-67
2022/07/24 05:50:40;;;;;;;;;;;;;;;31.09;34.92;99804.22;5099447;28;19919;-68
2022/07/24 05:53:06;;;;;;;;;;;;;;;31.21;35.05;99809.25;5100106;28;19953;-67
2022/07/24 05:55:31;;;;;;;;;;;;;;;31.11;35.25;99802.81;5099986;28;20198;-67
2022/07/24 05:57:56;;;;;;;;;;;;;;;31.35;34.82;99805.50;5099793;28;19916;-67
2022/07/24 06:00:21;;;;;;;;;;;;;;;31.31;34.84;99803.66;5102316;28;19920;-67
2022/07/24 06:02:47;;;;;;;;;;;;;;;31.28;34.52;99793.31;5101091;28;19951;-67
2022/07/24 06:05:16;;;;;;;;;;;;;;;31.15;35.17;99792.13;5101164;28;19912;-67
2022/07/24 06:07:42;;;;;;;;;;;;;;;31.42;35.13;99792.25;5099619;28;19916;-67
2022/07/24 06:10:07;;;;;;;;;;;;;;;31.49;34.07;99785.59;5100705;28;19949;-68
2022/07/24 06:12:33;;;;;;;;;;;;;;;31.63;34.41;99775.50;5101538;28;19908;-67
2022/07/24 06:14:58;;;;;;;;;;;;;;;31.75;34.29;99775.84;5101289;28;19926;-68
2022/07/24 06:17:23;;;;;;;;;;;;;;;31.95;33.46;99774.66;5102861;28;20274;-68
2022/07/24 06:19:48;;;;;;;;;;;;;;;32.14;33.42;99769.09;5099129;28;19954;-67
2022/07/24 06:22:13;;;;;;;;;;;;;;;32.04;33.20;99768.19;5100185;28;19957;-67
2022/07/24 06:24:39;;;;;;;;;;;;;;;31.85;33.00;99764.72;5098401;28;20176;-67
2022/07/24 06:27:04;;;;;;;;;;;;;;;31.77;32.54;99759.94;5100544;28;19911;-67
2022/07/24 06:29:30;;;;;;;;;;;;;;;31.83;32.64;99758.72;5098555;28;20203;-68
2022/07/24 06:31:55;;;;;;;;;;;;;;;31.90;31.35;99758.34;5101589;28;19908;-68
2022/07/24 06:34:23;;;;;;;;;;;;;;;32.22;31.34;99733.59;5100307;28;20228;-68
2022/07/24 06:36:49;;;;;;;;;;;;;;;32.36;32.04;99755.56;5098640;28;19924;-67
2022/07/24 06:39:14;;;;;;;;;;;;;;;32.38;31.70;99764.28;5101609;28;19916;-68
2022/07/24 06:41:39;;;;;;;;;;;;;;;32.58;31.52;99754.81;5101203;28;20100;-68
2022/07/24 06:44:06;;;;;;;;;;;;;;;32.59;31.41;99754.50;5100375;28;19922;-68
2022/07/24 06:46:31;;;;;;;;;;;;;;;32.97;30.59;99743.25;5098275;28;19943;-68
2022/07/24 06:48:56;;;;;;;;;;;;;;;33.19;30.27;99737.78;5100816;28;19915;-67
2022/07/24 06:51:21;;;;;;;;;;;;;;;33.47;29.55;99740.44;5100903;28;19911;-68
2022/07/24 06:53:47;;;;;;;;;;;;;;;33.71;28.88;99729.09;5099531;28;19983;-68
2022/07/24 06:56:12;;;;;;;;;;;;;;;33.84;29.45;99739.22;5101801;28;19919;-68
2022/07/24 06:58:38;;;;;;;;;;;;;;;33.84;28.79;99730.97;5098979;28;20105;-68
2022/07/24 07:01:03;;;;;;;;;;;;;;;33.84;28.70;99734.53;5101084;28;20134;-68
2022/07/24 07:03:28;;;;;;;;;;;;;;;34.35;28.39;99727.66;5100298;28;19935;-68
2022/07/24 07:05:54;;;;;;;;;;;;;;;34.43;28.46;99731.53;5102221;28;19912;-68
2022/07/24 07:08:19;;;;;;;;;;;;;;;34.40;28.61;99722.00;5102570;28;20083;-68
2022/07/24 07:10:44;;;;;;;;;;;;;;;34.62;28.13;99728.50;5100799;28;19908;-68
2022/07/24 07:13:09;;;;;;;;;;;;;;;34.09;28.15;99724.78;5099529;28;19997;-68
2022/07/24 07:15:35;;;;;;;;;;;;;;;33.82;28.51;99727.72;5099982;28;19945;-68
2022/07/24 07:18:00;;;;;;;;;;;;;;;33.27;28.88;99726.06;5100394;28;20182;-68
2022/07/24 07:20:25;;;;;;;;;;;;;;;33.08;29.95;99722.69;5098870;28;19912;-68
2022/07/24 07:22:50;;;;;;;;;;;;;;;33.60;29.83;99718.41;5099231;28;19919;-67
2022/07/24 07:25:16;;;;;;;;;;;;;;;34.23;28.54;99719.16;5099617;28;19919;-68
2022/07/24 07:27:41;;;;;;;;;;;;;;;34.58;28.38;99715.38;5098660;28;19915;-68
2022/07/24 07:30:07;;;;;;;;;;;;;;;34.13;28.26;99716.69;5100348;28;19919;-68
2022/07/24 07:32:33;;;;;;;;;;;;;;;33.99;28.17;99703.06;5099934;28;19923;-68
2022/07/24 07:34:58;;;;;;;;;;;;;;;34.28;28.06;99706.06;5099777;28;20075;-68
2022/07/24 07:37:24;;;;;;;;;;;;;;;34.51;27.44;99715.06;5100634;28;19946;-68
2022/07/24 07:39:49;;;;;;;;;;;;;;;34.48;28.17;99709.41;5099266;28;20248;-68
2022/07/24 07:42:14;;;;;;;;;;;;;;;34.46;27.67;99708.91;5104304;28;19950;-68
2022/07/24 07:44:39;;;;;;;;;;;;;;;34.94;27.75;99703.28;5104074;28;19923;-67
2022/07/24 07:47:05;;;;;;;;;;;;;;;35.18;27.07;99700.81;5103846;28;20236;-68
2022/07/24 07:49:30;;;;;;;;;;;;;;;35.04;27.02;99700.19;5103313;28;19916;-68
2022/07/24 07:51:55;;;;;;;;;;;;;;;35.34;27.29;99700.34;5102102;28;20144;-68
2022/07/24 07:54:21;;;;;;;;;;;;;;;35.65;26.73;99692.66;5102787;28;19924;-68
2022/07/24 07:56:46;;;;;;;;;;;;;;;35.72;26.32;99698.47;5103365;28;20251;-68
2022/07/24 07:59:11;;;;;;;;;;;;;;;35.41;27.69;99698.72;5103951;28;19916;-68
2022/07/24 08:01:37;;;;;;;;;;;;;;;35.04;27.68;99691.94;5105767;28;19912;-67
2022/07/24 08:04:02;;;;;;;;;;;;;;;35.34;27.51;99692.88;5102601;28;19916;-68
2022/07/24 08:06:28;;;;;;;;;;;;;;;35.56;27.38;99685.56;5103732;28;19916;-68
2022/07/24 08:08:53;;;;;;;;;;;;;;;35.37;27.32;99691.44;5102839;28;19916;-68
2022/07/24 08:11:18;;;;;;;;;;;;;;;35.07;27.27;99690.47;5102386;28;19996;-68
2022/07/24 08:13:45;;;;;;;;;;;;;;;34.89;28.66;99687.75;5103060;28;20071;-68
2022/07/24 08:16:10;;;;;;;;;;;;;;;34.97;27.75;99688.88;5103352;28;20168;-68
2022/07/24 08:18:35;;;;;;;;;;;;;;;34.88;27.46;99682.56;5103446;28;19916;-68
2022/07/24 08:21:00;;;;;;;;;;;;;;;34.99;27.97;99680.31;5104245;28;19951;-68
2022/07/24 08:23:26;;;;;;;;;;;;;;;35.13;27.62;99675.41;5103418;28;19916;-68
2022/07/24 08:25:51;;;;;;;;;;;;;;;34.95;27.97;99680.16;5103117;28;19948;-68
2022/07/24 08:28:17;;;;;;;;;;;;;;;35.11;27.94;99669.44;5101069;28;20227;-68
2022/07/24 08:30:42;;;;;;;;;;;;;;;35.12;27.41;99669.09;5103469;28;19915;-68
2022/07/24 08:33:07;;;;;;;;;;;;;;;35.00;27.16;99670.91;5102703;28;19916;-68
2022/07/24 08:35:32;;;;;;;;;;;;;;;35.30;27.16;99667.13;5101859;28;19957;-68
2022/07/24 08:37:58;;;;;;;;;;;;;;;35.01;28.00;99667.03;5101417;28;19916;-67
2022/07/24 08:40:23;;;;;;;;;;;;;;;35.31;28.54;99668.75;5103911;28;19919;-68
2022/07/24 08:42:49;;;;;;;;;;;;;;;35.91;27.37;99656.75;5103296;28;19916;-67
2022/07/24 08:45:15;;;;;;;;;;;;;;;36.02;27.18;99660.75;5100547;28;19965;-68
2022/07/24 08:47:41;;;;;;;;;;;;;;;35.96;26.38;99653.81;5101788;28;19923;-68
2022/07/24 08:50:07;;;;;;;;;;;;;;;36.03;27.38;99651.34;5103395;28;20118;-68
2022/07/24 08:52:35;;;;;;;;;;;;;;;35.83;27.33;99654.84;5103528;28;19916;-68
2022/07/24 08:55:01;;;;;;;;;;;;;;;35.59;28.12;99652.66;5101994;28;19912;-68
2022/07/24 08:57:26;;;;;;;;;;;;;;;35.83;26.57;99641.06;5103019;28;19920;-68
2022/07/24 08:59:51;;;;;;;;;;;;;;;35.83;27.29;99650.16;5104332;28;19912;-68
2022/07/24 09:02:17;;;;;;;;;;;;;;;35.92;27.16;99647.34;5104304;28;19911;-68
2022/07/24 09:04:44;;;;;;;;;;;;;;;35.95;27.77;99638.41;5102725;28;20217;-68
2022/07/24 09:07:11;;;;;;;;;;;;;;;36.02;26.52;99638.69;5100403;28;19912;-68
2022/07/24 09:09:37;;;;;;;;;;;;;;;35.91;26.90;99634.72;5102758;28;19969;-68
2022/07/24 09:12:13;;;;;;;;;;;;;;;35.99;27.23;99636.59;5102491;28;19911;-68
2022/07/24 09:14:39;;;;;;;;;;;;;;;35.96;26.33;99633.72;5102684;28;19947;-68
2022/07/24 09:17:06;;;;;;;;;;;;;;;36.05;26.11;99627.00;5100372;28;19911;-68
2022/07/24 09:19:45;;;;;;;;;;;;;;;36.13;27.17;99630.84;5101428;28;19979;-68
2022/07/24 09:22:16;;;;;;;;;;;;;;;36.02;26.86;99626.88;5101078;28;20194;-68
2022/07/24 09:24:42;;;;;;;;;;;;;;;36.22;25.72;99625.25;5098646;28;20000;-68
2022/07/24 09:27:13;;;;;;;;;;;;;;;36.19;27.12;99632.25;5103508;28;19924;-68
2022/07/24 09:29:38;;;;;;;;;;;;;;;36.25;26.47;99619.88;5104436;28;20367;-68
2022/07/24 09:32:04;;;;;;;;;;;;;;;36.28;26.86;99616.50;5101249;28;19912;-68
2022/07/24 09:34:37;;;;;;;;;;;;;;;36.07;27.17;99610.94;5102242;28;19947;-68
2022/07/24 09:37:03;;;;;;;;;;;;;;;36.22;27.19;99609.53;5101686;28;19943;-68
2022/07/24 09:39:31;;;;;;;;;;;;;;;36.32;26.51;99606.41;5099107;28;19920;-68
2022/07/24 09:41:57;;;;;;;;;;;;;;;36.32;27.10;99602.84;5069964;28;20274;-68
2022/07/24 09:44:23;;;;;;;;;;;;;;;36.08;27.61;99604.28;5100609;28;19916;-68
2022/07/24 09:46:56;;;;;;;;;;;;;;;36.25;26.57;99597.03;5102693;28;19923;-68
2022/07/24 09:49:22;;;;;;;;;;;;;;;36.08;27.10;99593.25;5101566;28;19969;-67
2022/07/24 09:52:06;;;;;;;;;;;;;;;36.15;27.00;99592.72;5102041;28;19916;-67
2022/07/24 09:54:32;;;;;;;;;;;;;;;36.02;27.01;99588.28;5099717;28;20269;-68
2022/07/24 09:57:17;;;;;;;;;;;;;;;35.90;26.89;99597.28;5100383;28;19926;-68
2022/07/24 09:59:44;;;;;;;;;;;;;;;36.04;26.84;99594.25;5100823;28;20091;-68
2022/07/24 10:02:12;;;;;;;;;;;;;;;35.97;26.60;99581.03;5101527;28;19912;-68
2022/07/24 10:04:38;;;;;;;;;;;;;;;36.26;27.62;99582.09;5100757;28;19923;-68
2022/07/24 10:07:05;;;;;;;;;;;;;;;36.07;26.85;99590.84;5101856;28;19907;-68
2022/07/24 10:09:32;;;;;;;;;;;;;;;35.80;26.04;99584.69;5101952;28;19923;-68
2022/07/24 10:11:57;;;;;;;;;;;;;;;35.91;26.39;99574.09;5100352;28;19983;-68
2022/07/24 10:14:23;;;;;;;;;;;;;;;35.90;26.17;99578.00;5102402;28;20216;-68
2022/07/24 10:16:58;;;;;;;;;;;;;;;35.93;25.65;99573.75;5099933;28;19924;-68
2022/07/24 10:19:31;;;;;;;;;;;;;;;36.11;25.58;99566.97;5101662;28;19916;-68
2022/07/24 10:22:00;;;;;;;;;;;;;;;36.11;25.88;99555.94;5097980;28;19919;-68
2022/07/24 10:24:50;;;;;;;;;;;;;;;36.05;26.58;99558.09;5099490;28;19979;-67
2022/07/24 10:27:23;;;;;;;;;;;;;;;36.24;25.88;99560.38;5096989;28;20198;-68
2022/07/24 10:29:48;;;;;;;;;;;;;;;36.22;25.50;99557.16;5099653;28;19928;-67
2022/07/24 10:32:14;;;;;;;;;;;;;;;36.35;26.06;99547.81;5101529;28;20125;-68
2022/07/24 10:34:46;;;;;;;;;;;;;;;36.17;26.00;99548.28;5100364;28;20224;-68
2022/07/24 10:37:15;;;;;;;;;;;;;;;36.32;25.98;99536.66;5100940;28;19966;-68
2022/07/24 10:39:44;;;;;;;;;;;;;;;36.32;25.90;99537.47;5100639;28;19977;-68
2022/07/24 10:42:09;;;;;;;;;;;;;;;36.55;26.88;99535.19;5099222;28;19944;-68
2022/07/24 10:44:36;;;;;;;;;;;;;;;36.25;26.37;99541.91;5102826;28;19942;-68
2022/07/24 10:47:08;;;;;;;;;;;;;;;36.41;25.30;99532.72;5100990;28;19970;-68
2022/07/24 10:49:44;;;;;;;;;;;;;;;36.50;25.58;99535.38;5099781;28;19916;-68
2022/07/24 10:52:11;;;;;;;;;;;;;;;36.35;25.41;99527.72;5096914;28;19935;-68
2022/07/24 10:54:36;;;;;;;;;;;;;;;36.34;24.55;99526.91;5081848;28;19987;-68
2022/07/24 10:57:02;;;;;;;;;;;;;;;36.40;24.65;99522.81;5098110;28;20110;-68
2022/07/24 10:59:34;;;;;;;;;;;;;;;36.44;24.69;99520.19;5102209;28;19947;-68
2022/07/24 11:02:19;;;;;;;;;;;;;;;36.57;24.49;99521.84;5101090;28;20239;-68
2022/07/24 11:04:44;;;;;;;;;;;;;;;36.61;24.78;99520.03;5080547;28;20114;-68
2022/07/24 11:07:14;;;;;;;;;;;;;;;36.57;24.86;99515.53;5098502;28;19958;-68
2022/07/24 11:09:58;;;;;;;;;;;;;;;36.52;24.89;99513.78;5101907;28;19950;-68
2022/07/24 11:12:28;;;;;;;;;;;;;;;36.53;24.46;99509.88;5101432;28;19958;-68
2022/07/24 11:15:53;;;;;;;;;;;;;;;36.60;24.16;99504.63;5100699;28;19912;-68
2022/07/24 11:17:43;;;;;;;;;;;;;;;36.31;25.98;99499.22;5104484;28;19916;-68
2022/07/24 11:20:10;;;;;;;;;;;;;;;36.39;25.42;99501.09;5105033;28;19958;-68
2022/07/24 11:22:57;;;;;;;;;;;;;;;36.52;24.94;99493.69;5102470;28;19912;-68
2022/07/24 11:25:22;;;;;;;;;;;;;;;36.71;23.97;99494.75;5103146;28;20236;-68
2022/07/24 11:27:51;;;;;;;;;;;;;;;36.82;23.51;99486.88;5104236;28;19916;-68
2022/07/24 11:30:17;;;;;;;;;;;;;;;36.76;22.84;99483.53;5104396;28;19916;-68
2022/07/24 11:32:42;;;;;;;;;;;;;;;36.73;23.19;99481.44;5103178;28;20156;-68
2022/07/24 11:35:08;;;;;;;;;;;;;;;36.64;24.20;99474.41;5104139;28;19947;-68
2022/07/24 11:37:37;;;;;;;;;;;;;;;36.62;24.50;99479.47;5104116;28;20493;-68
2022/07/24 11:40:05;;;;;;;;;;;;;;;36.74;24.47;99465.69;5106389;28;19919;-68
2022/07/24 11:42:30;;;;;;;;;;;;;;;36.85;23.67;99466.06;5106925;28;19918;-68
2022/07/24 11:44:55;;;;;;;;;;;;;;;37.02;22.75;99465.84;5104351;28;19944;-68
2022/07/24 11:47:23;;;;;;;;;;;;;;;36.85;22.98;99455.84;5103456;28;19975;-68
2022/07/24 11:49:50;;;;;;;;;;;;;;;36.90;23.34;99455.63;5102999;28;20125;-68
2022/07/24 11:52:18;;;;;;;;;;;;;;;37.07;22.56;99457.34;5104574;28;19908;-68
2022/07/24 11:54:43;;;;;;;;;;;;;;;37.13;22.93;99453.19;5103284;28;19920;-68
2022/07/24 11:57:16;;;;;;;;;;;;;;;36.97;23.24;99452.28;5089864;28;19942;-68
2022/07/24 11:59:41;;;;;;;;;;;;;;;37.09;23.58;99449.53;5105680;28;19922;-68
2022/07/24 12:02:07;;;;;;;;;;;;;;;37.09;23.02;99447.56;5108077;28;19908;-68
2022/07/24 12:04:33;;;;;;;;;;;;;;;37.17;22.69;99436.75;5106661;28;19943;-68
2022/07/24 12:06:58;;;;;;;;;;;;;;;37.35;22.75;99433.41;5105382;28;19919;-68
2022/07/24 12:09:23;;;;;;;;;;;;;;;37.38;22.07;99432.72;5105351;28;19923;-68
2022/07/24 12:11:49;;;;;;;;;;;;;;;37.31;22.44;99423.41;5105285;28;20106;-68
2022/07/24 12:14:15;;;;;;;;;;;;;;;37.11;22.23;99425.13;5110426;28;19920;-68
2022/07/24 12:16:41;;;;;;;;;;;;;;;37.27;22.32;99414.22;5104806;28;19978;-68
2022/07/24 12:19:17;;;;;;;;;;;;;;;37.19;23.36;99412.38;5098046;28;20094;-68
2022/07/24 12:21:43;;;;;;;;;;;;;;;37.15;23.23;99414.22;5104699;28;19951;-68
2022/07/24 12:24:09;;;;;;;;;;;;;;;37.24;22.92;99404.69;5105116;28;19928;-69
2022/07/24 12:26:47;;;;;;;;;;;;;;;37.14;22.40;99402.34;5104171;28;20202;-68
2022/07/24 12:29:12;;;;;;;;;;;;;;;37.42;21.57;99399.69;5105203;28;19920;-68
2022/07/24 12:31:37;;;;;;;;;;;;;;;37.36;21.66;99398.31;5110963;28;20106;-68
2022/07/24 12:34:04;;;;;;;;;;;;;;;37.18;21.80;99392.22;5104919;28;19938;-68
2022/07/24 12:36:29;;;;;;;;;;;;;;;37.12;22.67;99393.63;5104422;28;20185;-68
2022/07/24 12:38:56;;;;;;;;;;;;;;;37.31;21.97;99380.03;5104886;28;19916;-68
2022/07/24 12:41:23;;;;;;;;;;;;;;;37.46;22.89;99386.00;5104297;28;19943;-68
2022/07/24 12:43:51;;;;;;;;;;;;;;;37.31;23.25;99379.25;5104410;28;20117;-68